Time;durP1;ratioP1;P1;durP2;ratioP2;P2;SDS_P1;SDS_P2;PMS_P1;PMS_P2;Temp;Humidity;BMP_temperature;BMP_pressure;BME280_temperature;BME280_humidity;BME280_pressure;Samples;Min_cycle;Max_cycle;Signal;HPM_P1;HPM_P2
2023/05/09 00:02:40;;;;;;;;;;;;;;;19.71;56.31;101770.94;2249882;79;51430;-73
2023/05/09 00:05:42;;;;;;;;;;;;;;;19.72;56.26;101769.92;2249527;78;51675;-73
2023/05/09 00:08:44;;;;;;;;;;;;;;;19.72;56.27;101773.95;2199146;79;52022;-73
2023/05/09 00:11:46;;;;;;;;;;;;;;;19.71;56.20;101770.94;2223880;79;50344;-72
2023/05/09 00:14:50;;;;;;;;;;;;;;;19.72;56.23;101766.41;2223750;79;50216;-73
2023/05/09 00:17:51;;;;;;;;;;;;;;;19.70;56.21;101770.58;2223908;79;22374;-73
2023/05/09 00:20:53;;;;;;;;;;;;;;;19.71;56.21;101774.97;2234263;79;51211;-73
2023/05/09 00:23:55;;;;;;;;;;;;;;;19.70;56.20;101769.23;2248138;78;50393;-73
2023/05/09 00:26:56;;;;;;;;;;;;;;;19.70;56.21;101773.27;2247163;79;50694;-72
2023/05/09 00:29:58;;;;;;;;;;;;;;;19.71;56.27;101775.47;2247277;79;50260;-72
2023/05/09 00:33:00;;;;;;;;;;;;;;;19.71;56.28;101769.59;2251857;78;49534;-72
2023/05/09 00:36:01;;;;;;;;;;;;;;;19.72;56.25;101763.72;2247439;78;50472;-72
2023/05/09 00:39:04;;;;;;;;;;;;;;;19.71;56.28;101769.59;2246957;78;50320;-73
2023/05/09 00:42:05;;;;;;;;;;;;;;;19.72;56.29;101771.27;2247874;78;51497;-73
2023/05/09 00:45:08;;;;;;;;;;;;;;;19.72;56.28;101779.83;2251826;79;52328;-73
2023/05/09 00:48:09;;;;;;;;;;;;;;;19.72;56.28;101773.95;2234733;79;50265;-73
2023/05/09 00:51:11;;;;;;;;;;;;;;;19.71;56.28;101766.91;2253625;79;50340;-73
2023/05/09 00:54:13;;;;;;;;;;;;;;;19.71;56.31;101768.25;2251152;79;51556;-73
2023/05/09 00:57:15;;;;;;;;;;;;;;;19.72;56.27;101770.43;2248833;78;50929;-74
2023/05/09 01:00:16;;;;;;;;;;;;;;;19.70;56.31;101754.47;2226001;79;51463;-73
2023/05/09 01:03:18;;;;;;;;;;;;;;;19.69;56.29;101762.20;2253238;77;51455;-73
2023/05/09 01:06:21;;;;;;;;;;;;;;;19.70;56.27;101747.75;2254213;79;51419;-73
2023/05/09 01:09:28;;;;;;;;;;;;;;;19.70;56.28;101747.75;2223287;79;52429;-73
2023/05/09 01:12:43;;;;;;;;;;;;;;;19.70;56.26;101751.78;2253693;79;51517;-73
2023/05/09 01:15:49;;;;;;;;;;;;;;;19.70;56.23;101745.07;2253315;79;50167;-73
2023/05/09 01:18:52;;;;;;;;;;;;;;;19.70;56.26;101744.23;2231673;79;51401;-73
2023/05/09 01:21:54;;;;;;;;;;;;;;;19.69;56.24;101740.72;2223403;79;52465;-73
2023/05/09 01:25:14;;;;;;;;;;;;;;;19.68;56.25;101736.36;2254418;79;50009;-73
2023/05/09 01:28:17;;;;;;;;;;;;;;;19.68;56.27;101737.70;2253934;78;50420;-73
2023/05/09 01:31:19;;;;;;;;;;;;;;;19.69;56.25;101737.20;2254202;79;50365;-73
2023/05/09 01:34:20;;;;;;;;;;;;;;;19.68;56.27;101733.68;2253716;79;51369;-73
2023/05/09 01:37:23;;;;;;;;;;;;;;;19.68;56.27;101738.19;2251954;79;51697;-73
2023/05/09 01:40:25;;;;;;;;;;;;;;;19.68;56.26;101732.34;2227617;79;49990;-73
2023/05/09 01:43:27;;;;;;;;;;;;;;;19.67;56.26;101727.95;2227512;79;50251;-73
2023/05/09 01:46:29;;;;;;;;;;;;;;;19.67;56.26;101733.32;2240093;78;51775;-73
2023/05/09 01:49:30;;;;;;;;;;;;;;;19.66;56.33;101716.85;2240163;79;51612;-73
2023/05/09 01:52:32;;;;;;;;;;;;;;;19.67;56.30;101718.55;2253915;79;50380;-72
2023/05/09 01:55:34;;;;;;;;;;;;;;;19.68;56.26;101719.39;2253809;79;50741;-73
2023/05/09 01:58:35;;;;;;;;;;;;;;;19.67;56.31;101722.58;2248518;78;51611;-73
2023/05/09 02:01:37;;;;;;;;;;;;;;;19.66;56.31;101719.54;2253728;79;51474;-72
2023/05/09 02:04:39;;;;;;;;;;;;;;;19.66;56.33;101719.54;2254221;78;50202;-74
2023/05/09 02:07:41;;;;;;;;;;;;;;;19.66;56.32;101715.52;2252784;79;51565;-73
2023/05/09 02:10:42;;;;;;;;;;;;;;;19.66;56.30;101722.22;2246123;78;52397;-73
2023/05/09 02:13:44;;;;;;;;;;;;;;;19.67;56.30;101720.41;2254345;79;50298;-72
2023/05/09 02:16:45;;;;;;;;;;;;;;;19.65;56.29;101723.23;2251860;79;50254;-74
2023/05/09 02:19:47;;;;;;;;;;;;;;;19.65;56.29;101713.84;2218104;79;50689;-73
2023/05/09 02:22:48;;;;;;;;;;;;;;;19.65;56.27;101717.87;2207079;80;51685;-72
2023/05/09 02:25:50;;;;;;;;;;;;;;;19.65;56.26;101719.21;2205877;80;51422;-73
2023/05/09 02:28:52;;;;;;;;;;;;;;;19.65;56.23;101716.53;2205368;80;52172;-73
2023/05/09 02:31:53;;;;;;;;;;;;;;;19.65;56.27;101723.23;2205786;80;51497;-73
2023/05/09 02:34:55;;;;;;;;;;;;;;;19.64;56.29;101721.54;2207531;80;51740;-73
2023/05/09 02:37:57;;;;;;;;;;;;;;;19.65;56.30;101723.72;2205569;80;50103;-73
2023/05/09 02:40:58;;;;;;;;;;;;;;;19.64;56.36;101720.20;2205830;80;51552;-73
2023/05/09 02:44:00;;;;;;;;;;;;;;;19.64;56.38;101720.20;2180871;80;51457;-73
2023/05/09 02:47:02;;;;;;;;;;;;;;;19.64;56.32;101730.94;2214393;78;50093;-73
2023/05/09 02:50:04;;;;;;;;;;;;;;;19.64;56.30;101726.91;2242284;78;51309;-73
2023/05/09 02:53:05;;;;;;;;;;;;;;;19.64;56.50;101722.88;2240424;79;51548;-72
2023/05/09 02:56:08;;;;;;;;;;;;;;;19.63;56.40;101719.04;2213408;79;51480;-72
2023/05/09 02:59:10;;;;;;;;;;;;;;;19.64;56.40;101718.02;2232547;79;50911;-72
2023/05/09 03:02:11;;;;;;;;;;;;;;;19.64;56.42;101718.86;2214010;79;50731;-72
2023/05/09 03:05:13;;;;;;;;;;;;;;;19.64;56.40;101712.14;2214409;79;51531;-72
2023/05/09 03:08:14;;;;;;;;;;;;;;;19.63;56.41;101718.53;2239394;79;50697;-72
2023/05/09 03:11:16;;;;;;;;;;;;;;;19.64;56.39;101716.17;2190894;79;52276;-72
2023/05/09 03:14:18;;;;;;;;;;;;;;;19.63;56.44;101717.19;2213001;79;51485;-72
2023/05/09 03:17:20;;;;;;;;;;;;;;;19.62;56.41;101714.14;2220735;79;51497;-73
2023/05/09 03:20:21;;;;;;;;;;;;;;;19.62;56.44;101710.12;2224059;79;50377;-73
2023/05/09 03:23:23;;;;;;;;;;;;;;;19.62;56.45;101703.41;2251439;78;52543;-73
2023/05/09 03:26:25;;;;;;;;;;;;;;;19.60;56.46;101702.75;2238580;78;51441;-73
2023/05/09 03:29:27;;;;;;;;;;;;;;;19.61;56.52;101698.22;2233918;78;50751;-73
2023/05/09 03:32:28;;;;;;;;;;;;;;;19.62;56.48;101700.72;2247009;79;53190;-73
2023/05/09 03:35:30;;;;;;;;;;;;;;;19.61;56.45;101696.37;2251901;79;51151;-73
2023/05/09 03:38:31;;;;;;;;;;;;;;;19.61;56.44;101703.08;2249776;79;51519;-72
2023/05/09 03:41:34;;;;;;;;;;;;;;;19.61;56.49;101700.39;2249618;79;50938;-73
2023/05/09 03:44:36;;;;;;;;;;;;;;;19.60;56.51;101694.70;2250012;79;50694;-73
2023/05/09 03:47:38;;;;;;;;;;;;;;;19.59;56.64;101697.03;2230725;79;50419;-71
2023/05/09 03:50:39;;;;;;;;;;;;;;;19.58;56.60;101700.73;2243828;78;50702;-72
2023/05/09 03:53:41;;;;;;;;;;;;;;;19.59;56.52;101710.45;2249816;79;50333;-72
2023/05/09 03:56:42;;;;;;;;;;;;;;;19.59;56.50;101711.80;2238134;78;50407;-72
2023/05/09 03:59:44;;;;;;;;;;;;;;;19.59;56.51;101703.73;2251393;78;50298;-72
2023/05/09 04:02:46;;;;;;;;;;;;;;;19.59;56.51;101690.31;2249717;78;50421;-73
2023/05/09 04:05:47;;;;;;;;;;;;;;;19.59;56.50;101695.69;2249908;78;50711;-72
2023/05/09 04:08:49;;;;;;;;;;;;;;;19.58;56.51;101696.20;2249467;78;50421;-73
2023/05/09 04:11:51;;;;;;;;;;;;;;;19.58;56.50;101705.59;2251499;79;51130;-73
2023/05/09 04:14:52;;;;;;;;;;;;;;;19.59;56.54;101693.83;2236337;78;50337;-73
2023/05/09 04:17:54;;;;;;;;;;;;;;;19.58;56.51;101702.07;2232319;79;50234;-72
2023/05/09 04:20:55;;;;;;;;;;;;;;;19.60;56.56;101700.07;2249460;78;50620;-73
2023/05/09 04:23:57;;;;;;;;;;;;;;;19.61;56.52;101703.08;2251340;79;51099;-73
2023/05/09 04:26:58;;;;;;;;;;;;;;;19.61;56.48;101693.69;2234628;78;49949;-72
2023/05/09 04:30:00;;;;;;;;;;;;;;;19.62;56.40;101694.01;2249790;78;50680;-73
2023/05/09 04:33:02;;;;;;;;;;;;;;;19.61;56.38;101703.08;2236162;79;50301;-73
2023/05/09 04:36:04;;;;;;;;;;;;;;;19.62;56.28;101700.72;2251297;79;51680;-73
2023/05/09 04:39:06;;;;;;;;;;;;;;;19.61;56.66;101695.53;2237164;78;50095;-74
2023/05/09 04:42:08;;;;;;;;;;;;;;;19.58;57.26;101691.33;2250268;79;50783;-73
2023/05/09 04:45:11;;;;;;;;;;;;;;;19.58;57.30;101699.39;2239171;78;51454;-74
2023/05/09 04:48:13;;;;;;;;;;;;;;;19.57;57.31;101705.27;2240406;79;50439;-74
2023/05/09 04:51:14;;;;;;;;;;;;;;;19.57;57.32;101700.38;2213849;80;50225;-75
2023/05/09 04:54:16;;;;;;;;;;;;;;;19.61;57.04;101699.56;2213826;80;50228;-76
2023/05/09 04:57:17;;;;;;;;;;;;;;;19.62;56.93;101694.01;2190150;80;50168;-75
2023/05/09 05:00:20;;;;;;;;;;;;;;;19.63;57.08;101687.66;2189836;80;52888;-73
2023/05/09 05:03:21;;;;;;;;;;;;;;;19.64;57.82;101693.86;2189269;80;50424;-74
2023/05/09 05:06:23;;;;;;;;;;;;;;;19.63;58.21;101695.70;2189273;80;50799;-74
2023/05/09 05:09:24;;;;;;;;;;;;;;;19.68;58.04;101690.72;2189238;80;50313;-74
2023/05/09 05:12:26;;;;;;;;;;;;;;;19.74;58.54;101687.87;2190096;79;51637;-74
2023/05/09 05:15:28;;;;;;;;;;;;;;;19.80;58.23;101681.82;2214865;79;51446;-74
2023/05/09 05:18:29;;;;;;;;;;;;;;;19.89;58.03;101686.72;2243588;78;50714;-74
2023/05/09 05:21:31;;;;;;;;;;;;;;;19.96;57.95;101690.39;2249951;79;50631;-76
2023/05/09 05:24:33;;;;;;;;;;;;;;;20.06;57.75;101682.17;2243597;78;52574;-74
2023/05/09 05:27:34;;;;;;;;;;;;;;;20.14;57.48;101683.03;2249769;79;51552;-73
2023/05/09 05:30:36;;;;;;;;;;;;;;;20.19;57.27;101679.34;2250013;79;50223;-75
2023/05/09 05:33:38;;;;;;;;;;;;;;;20.26;56.89;101678.14;2249803;78;51558;-74
2023/05/09 05:36:39;;;;;;;;;;;;;;;20.31;56.90;101672.27;2252002;77;49556;-73
2023/05/09 05:39:41;;;;;;;;;;;;;;;20.37;56.80;101667.55;2241729;78;50415;-74
2023/05/09 05:42:43;;;;;;;;;;;;;;;20.41;56.46;101663.52;2250671;79;50397;-73
2023/05/09 05:45:44;;;;;;;;;;;;;;;20.48;56.25;101665.03;2238404;78;51541;-73
2023/05/09 05:48:46;;;;;;;;;;;;;;;20.55;56.02;101670.94;2212755;78;51028;-73
2023/05/09 05:51:48;;;;;;;;;;;;;;;20.61;55.95;101666.20;2222649;79;50292;-72
2023/05/09 05:54:49;;;;;;;;;;;;;;;20.70;55.81;101667.01;2249218;78;50474;-72
2023/05/09 05:57:51;;;;;;;;;;;;;;;20.75;55.73;101669.19;2223989;79;50245;-72
2023/05/09 06:00:52;;;;;;;;;;;;;;;20.81;55.59;101659.10;2233493;79;51699;-73
2023/05/09 06:03:54;;;;;;;;;;;;;;;20.89;55.29;101653.69;2225503;79;51399;-73
2023/05/09 06:06:56;;;;;;;;;;;;;;;20.92;55.07;101657.37;2244511;79;50045;-72
2023/05/09 06:09:57;;;;;;;;;;;;;;;20.96;54.96;101647.95;2238180;79;50382;-73
2023/05/09 06:12:59;;;;;;;;;;;;;;;21.00;54.89;101642.53;2238327;78;51146;-73
2023/05/09 06:16:01;;;;;;;;;;;;;;;21.06;54.69;101639.12;2233907;79;50626;-72
2023/05/09 06:19:02;;;;;;;;;;;;;;;21.08;54.83;101638.45;2236889;79;51434;-72
2023/05/09 06:22:04;;;;;;;;;;;;;;;21.14;54.76;101630.69;2234699;79;50867;-73
2023/05/09 06:25:05;;;;;;;;;;;;;;;21.20;54.65;101631.34;2237574;79;50737;-73
2023/05/09 06:28:07;;;;;;;;;;;;;;;21.23;54.59;101630.48;2239256;79;51709;-75
2023/05/09 06:31:09;;;;;;;;;;;;;;;21.27;54.28;101621.53;2238285;79;50373;-75
2023/05/09 06:34:11;;;;;;;;;;;;;;;21.25;53.72;101620.89;2185624;79;50737;-75
2023/05/09 06:37:12;;;;;;;;;;;;;;;21.24;53.99;101620.03;2197513;81;50714;-75
2023/05/09 06:40:14;;;;;;;;;;;;;;;21.27;54.11;101612.97;2176874;81;51856;-75
2023/05/09 06:43:15;;;;;;;;;;;;;;;21.28;54.20;101608.42;2200559;81;51537;-75
2023/05/09 06:46:17;;;;;;;;;;;;;;;21.29;54.16;101607.39;2200424;81;50296;-75
2023/05/09 06:49:19;;;;;;;;;;;;;;;21.30;54.13;101602.36;2200563;81;51567;-75
2023/05/09 06:52:20;;;;;;;;;;;;;;;21.31;54.09;101595.43;2200316;81;51572;-75
2023/05/09 06:55:22;;;;;;;;;;;;;;;21.34;54.02;101587.50;2200154;80;50245;-75
2023/05/09 06:58:23;;;;;;;;;;;;;;;21.36;53.87;101592.20;2199964;80;50312;-75
2023/05/09 07:01:25;;;;;;;;;;;;;;;21.38;53.80;101593.39;2200141;81;50831;-75
2023/05/09 07:04:27;;;;;;;;;;;;;;;21.37;53.79;101592.52;2189719;79;51094;-75
2023/05/09 07:07:28;;;;;;;;;;;;;;;21.36;53.73;101580.61;2226193;78;50265;-75
2023/05/09 07:10:30;;;;;;;;;;;;;;;21.38;53.68;101568.67;2244380;79;50624;-75
2023/05/09 07:13:32;;;;;;;;;;;;;;;21.38;53.62;101573.20;2244585;79;49664;-75
2023/05/09 07:16:33;;;;;;;;;;;;;;;21.37;53.60;101572.33;2244257;79;50350;-75
2023/05/09 07:19:35;;;;;;;;;;;;;;;21.38;53.55;101553.00;2244239;79;50597;-75
2023/05/09 07:22:36;;;;;;;;;;;;;;;21.36;53.52;101551.83;2244791;79;51521;-74
2023/05/09 07:25:38;;;;;;;;;;;;;;;21.34;53.43;101540.39;2244287;79;50708;-75
2023/05/09 07:28:40;;;;;;;;;;;;;;;21.33;53.37;101534.69;2243869;79;51430;-75
2023/05/09 07:31:41;;;;;;;;;;;;;;;21.31;53.22;101535.37;2244668;79;51559;-75
2023/05/09 07:34:43;;;;;;;;;;;;;;;21.31;53.26;101533.52;2241917;79;51460;-75
2023/05/09 07:37:44;;;;;;;;;;;;;;;21.30;53.19;101534.54;2205607;80;51457;-75
2023/05/09 07:40:46;;;;;;;;;;;;;;;21.29;53.16;101522.08;2231950;79;51248;-75
2023/05/09 07:43:47;;;;;;;;;;;;;;;21.28;53.15;101523.62;2205815;79;50378;-74
2023/05/09 07:46:49;;;;;;;;;;;;;;;21.27;53.10;101518.75;2231552;79;50245;-75
2023/05/09 07:49:51;;;;;;;;;;;;;;;21.27;53.00;101519.23;2205823;79;50673;-75
2023/05/09 07:52:54;;;;;;;;;;;;;;;21.25;53.09;101514.56;2207653;80;49583;-75
2023/05/09 07:55:57;;;;;;;;;;;;;;;21.23;53.16;101509.87;2230686;79;50791;-75
2023/05/09 07:58:59;;;;;;;;;;;;;;;21.22;53.15;101505.48;2205651;79;50326;-75
2023/05/09 08:02:01;;;;;;;;;;;;;;;21.19;53.19;101498.60;2235488;79;51489;-74
2023/05/09 08:05:02;;;;;;;;;;;;;;;21.19;53.09;101493.22;2201731;80;51731;-74
2023/05/09 08:08:04;;;;;;;;;;;;;;;21.19;53.01;101495.91;2182977;80;50764;-74
2023/05/09 08:11:06;;;;;;;;;;;;;;;21.15;53.01;101494.62;2182641;80;50209;-74
2023/05/09 08:14:08;;;;;;;;;;;;;;;21.14;52.96;101487.53;2210427;80;51267;-74
2023/05/09 08:17:09;;;;;;;;;;;;;;;21.14;52.88;101488.05;2160039;80;51193;-74
2023/05/09 08:20:12;;;;;;;;;;;;;;;21.13;52.79;101489.08;2183666;80;50042;-74
2023/05/09 08:23:13;;;;;;;;;;;;;;;21.12;52.77;101484.22;2182853;80;50429;-75
2023/05/09 08:26:15;;;;;;;;;;;;;;;21.09;52.75;101477.34;2208769;80;51577;-75
2023/05/09 08:29:16;;;;;;;;;;;;;;;21.07;52.69;101474.50;2209805;80;52328;-75
2023/05/09 08:32:18;;;;;;;;;;;;;;;21.06;52.71;101470.94;2183994;80;51524;-75
2023/05/09 08:35:20;;;;;;;;;;;;;;;21.02;52.72;101468.30;2178905;80;50689;-75
2023/05/09 08:38:23;;;;;;;;;;;;;;;21.01;52.68;101470.64;2165794;82;50325;-75
2023/05/09 08:41:29;;;;;;;;;;;;;;;21.01;52.65;101467.95;2167493;82;52425;-75
2023/05/09 08:44:28;;;;;;;;;;;;;;;20.99;52.57;101469.15;2165594;81;21930;-75
2023/05/09 08:47:30;;;;;;;;;;;;;;;20.96;52.52;101464.99;2165706;82;51486;-75
2023/05/09 08:50:32;;;;;;;;;;;;;;;20.94;52.59;101465.67;2166250;81;51515;-75
2023/05/09 08:53:33;;;;;;;;;;;;;;;20.93;52.48;101455.91;2167596;82;49605;-75
2023/05/09 08:56:35;;;;;;;;;;;;;;;20.90;52.53;101456.27;2140269;82;50155;-74
2023/05/09 08:59:37;;;;;;;;;;;;;;;20.91;52.46;101457.97;2165630;81;51489;-75
2023/05/09 09:02:40;;;;;;;;;;;;;;;20.89;52.41;101455.95;2183112;80;50664;-75
2023/05/09 09:05:42;;;;;;;;;;;;;;;20.82;52.47;101444.23;2208946;80;51546;-75
2023/05/09 09:08:44;;;;;;;;;;;;;;;20.80;52.55;101448.43;2183524;80;50000;-75
2023/05/09 09:11:46;;;;;;;;;;;;;;;20.81;52.58;101446.09;2208991;80;50257;-75
2023/05/09 09:14:49;;;;;;;;;;;;;;;20.78;52.58;101434.83;2209020;79;51505;-75
2023/05/09 09:17:50;;;;;;;;;;;;;;;20.77;52.50;101435.86;2209118;80;49611;-75
2023/05/09 09:20:53;;;;;;;;;;;;;;;20.76;52.53;101434.20;2208550;80;49856;-75
2023/05/09 09:23:55;;;;;;;;;;;;;;;20.73;52.52;101435.88;2209021;80;51550;-75
2023/05/09 09:26:57;;;;;;;;;;;;;;;20.74;52.49;101438.91;2183750;80;50681;-75
2023/05/09 09:30:08;;;;;;;;;;;;;;;20.70;52.48;101430.34;2160780;80;52428;-75
2023/05/09 09:33:10;;;;;;;;;;;;;;;20.72;52.46;101436.91;2183912;80;51952;-75
2023/05/09 09:36:11;;;;;;;;;;;;;;;20.70;52.51;101425.48;2208960;80;51319;-75
2023/05/09 09:39:13;;;;;;;;;;;;;;;20.64;52.63;101418.97;2204509;80;51516;-75
2023/05/09 09:42:15;;;;;;;;;;;;;;;20.66;52.53;101407.53;2210277;80;52605;-75
2023/05/09 09:45:17;;;;;;;;;;;;;;;20.64;52.35;101409.04;2203750;80;51416;-75
2023/05/09 09:48:18;;;;;;;;;;;;;;;20.60;52.54;101406.39;2208576;80;51496;-75
2023/05/09 09:51:20;;;;;;;;;;;;;;;20.60;52.48;101404.19;2201989;80;51451;-75
2023/05/09 09:54:22;;;;;;;;;;;;;;;20.58;52.52;101392.80;2209857;80;51731;-76
2023/05/09 09:57:34;;;;;;;;;;;;;;;20.58;52.69;101392.29;2204025;80;51970;-76
2023/05/09 10:00:35;;;;;;;;;;;;;;;20.57;52.81;101389.25;2209026;80;50509;-75
2023/05/09 10:03:42;;;;;;;;;;;;;;;20.53;52.81;101386.58;2207969;80;50308;-75
2023/05/09 10:06:45;;;;;;;;;;;;;;;20.53;52.84;101382.54;2206874;80;50677;-75
2023/05/09 10:09:48;;;;;;;;;;;;;;;20.52;52.92;101372.78;2208044;80;50766;-75
2023/05/09 10:12:49;;;;;;;;;;;;;;;20.48;52.99;101382.75;2204370;80;51608;-76
2023/05/09 10:15:51;;;;;;;;;;;;;;;20.46;53.10;101370.82;2208726;80;51529;-75
2023/05/09 10:18:53;;;;;;;;;;;;;;;20.47;53.06;101371.14;2208493;80;52464;-76
2023/05/09 10:21:56;;;;;;;;;;;;;;;20.45;53.11;101365.95;2208701;79;51464;-76
2023/05/09 10:24:59;;;;;;;;;;;;;;;20.41;53.18;101365.97;2208647;80;50701;-75
2023/05/09 10:28:01;;;;;;;;;;;;;;;20.40;53.23;101362.97;2208380;80;50689;-75
2023/05/09 10:31:07;;;;;;;;;;;;;;;20.38;53.25;101353.41;2210130;80;51187;-75
2023/05/09 10:34:09;;;;;;;;;;;;;;;20.38;53.22;101358.78;2208598;80;50445;-75
2023/05/09 10:37:11;;;;;;;;;;;;;;;20.34;53.30;101346.19;2208570;80;49978;-75
2023/05/09 10:40:14;;;;;;;;;;;;;;;20.34;53.31;101331.92;2208630;80;50681;-75
2023/05/09 10:43:15;;;;;;;;;;;;;;;20.32;53.36;101345.55;2200852;79;51226;-75
2023/05/09 10:46:17;;;;;;;;;;;;;;;20.32;53.32;101337.48;2208462;79;50357;-75
2023/05/09 10:49:18;;;;;;;;;;;;;;;20.30;53.34;101342.71;2208714;80;50728;-75
2023/05/09 10:52:21;;;;;;;;;;;;;;;20.29;53.36;101339.67;2208635;80;50265;-75
2023/05/09 10:55:23;;;;;;;;;;;;;;;20.28;53.38;101334.81;2210227;80;51759;-75
2023/05/09 10:58:37;;;;;;;;;;;;;;;20.28;53.44;101336.67;2208203;80;50341;-75
2023/05/09 11:01:36;;;;;;;;;;;;;;;20.29;53.39;101326.23;2204339;80;23041;-75
2023/05/09 11:04:37;;;;;;;;;;;;;;;20.28;53.36;101321.37;2197692;80;50319;-76
2023/05/09 11:07:39;;;;;;;;;;;;;;;20.25;53.43;101309.64;2116616;82;51598;-75
2023/05/09 11:10:41;;;;;;;;;;;;;;;20.27;53.44;101313.00;2144571;82;50213;-75
2023/05/09 11:13:45;;;;;;;;;;;;;;;20.28;53.39;101308.45;2144710;82;51459;-75
2023/05/09 11:16:51;;;;;;;;;;;;;;;20.24;53.40;101307.95;2169068;82;50699;-76
2023/05/09 11:19:54;;;;;;;;;;;;;;;20.26;53.52;101293.84;2141612;82;52570;-76
2023/05/09 11:22:55;;;;;;;;;;;;;;;20.26;53.48;101300.55;2169320;82;51510;-75
2023/05/09 11:26:04;;;;;;;;;;;;;;;20.23;53.46;101284.28;2143983;82;51470;-75
2023/05/09 11:29:06;;;;;;;;;;;;;;;20.26;53.45;101286.29;2169122;82;50774;-75
2023/05/09 11:32:07;;;;;;;;;;;;;;;20.24;53.48;101275.70;2174648;80;51152;-75
2023/05/09 11:35:11;;;;;;;;;;;;;;;20.23;53.42;101269.50;2193309;80;50743;-75
2023/05/09 11:38:12;;;;;;;;;;;;;;;20.24;53.46;101263.61;2164731;81;50477;-76
2023/05/09 11:41:14;;;;;;;;;;;;;;;20.23;53.31;101263.30;2164882;82;51405;-75
2023/05/09 11:44:17;;;;;;;;;;;;;;;20.22;53.34;101243.66;2142475;82;50881;-75
2023/05/09 11:47:19;;;;;;;;;;;;;;;20.25;53.38;101242.98;2164594;81;50363;-75
2023/05/09 11:50:21;;;;;;;;;;;;;;;20.25;53.36;101248.35;2171898;82;51688;-74
2023/05/09 11:53:22;;;;;;;;;;;;;;;20.24;53.43;101236.74;2196333;80;50726;-75
2023/05/09 11:56:24;;;;;;;;;;;;;;;20.24;53.39;101232.71;2173031;82;52644;-74
2023/05/09 11:59:26;;;;;;;;;;;;;;;20.22;53.13;101219.47;2196367;81;51450;-74
2023/05/09 12:02:27;;;;;;;;;;;;;;;20.23;53.24;101223.82;2167299;82;50612;-75
2023/05/09 12:05:29;;;;;;;;;;;;;;;20.19;53.19;101226.56;2187493;81;50394;-75
2023/05/09 12:08:31;;;;;;;;;;;;;;;20.21;53.21;101213.75;2207639;80;50879;-74
2023/05/09 12:11:33;;;;;;;;;;;;;;;20.20;53.29;101195.97;2234048;78;51510;-74
2023/05/09 12:14:35;;;;;;;;;;;;;;;20.20;53.30;101200.52;2222629;79;50679;-74
2023/05/09 12:17:36;;;;;;;;;;;;;;;20.21;53.44;101190.08;2249613;78;51571;-76
2023/05/09 12:20:42;;;;;;;;;;;;;;;20.21;53.50;101180.16;2231750;78;51005;-75
2023/05/09 12:23:44;;;;;;;;;;;;;;;20.21;53.49;101185.53;2249980;78;50784;-75
2023/05/09 12:26:45;;;;;;;;;;;;;;;20.21;53.51;101182.85;2249155;79;50403;-75
2023/05/09 12:29:47;;;;;;;;;;;;;;;20.19;53.63;101166.58;2249902;79;50256;-75
2023/05/09 12:32:48;;;;;;;;;;;;;;;20.18;53.65;101179.70;2239521;79;50048;-75
2023/05/09 12:35:52;;;;;;;;;;;;;;;20.19;53.68;101171.47;2234528;79;50898;-75
2023/05/09 12:38:54;;;;;;;;;;;;;;;20.20;53.68;101156.18;2246166;78;50284;-75
2023/05/09 12:41:55;;;;;;;;;;;;;;;20.21;53.69;101149.78;2249461;78;50681;-74
2023/05/09 12:44:57;;;;;;;;;;;;;;;20.21;53.70;101161.36;2252276;78;52515;-75
2023/05/09 12:48:00;;;;;;;;;;;;;;;20.23;53.68;101161.19;2249783;78;51524;-74
2023/05/09 12:51:02;;;;;;;;;;;;;;;20.22;53.75;101155.50;2249730;79;50324;-75
2023/05/09 12:54:04;;;;;;;;;;;;;;;20.23;53.65;101147.75;2249371;78;51526;-77
2023/05/09 12:57:05;;;;;;;;;;;;;;;20.25;53.75;101136.31;2209600;80;51418;-75
2023/05/09 13:00:08;;;;;;;;;;;;;;;20.27;53.69;101133.43;2236451;79;51459;-76
2023/05/09 13:03:21;;;;;;;;;;;;;;;20.28;53.66;101145.35;2237406;79;51615;-76
2023/05/09 13:06:24;;;;;;;;;;;;;;;20.28;53.70;101132.43;2245540;78;50779;-75
2023/05/09 13:09:26;;;;;;;;;;;;;;;20.28;53.79;101128.41;2200407;79;51222;-75
2023/05/09 13:12:29;;;;;;;;;;;;;;;20.29;53.79;101119.30;2209440;79;50693;-75
2023/05/09 13:15:30;;;;;;;;;;;;;;;20.27;53.82;101119.51;2206984;79;50315;-76
2023/05/09 13:18:32;;;;;;;;;;;;;;;20.28;53.85;101119.00;2244007;79;50831;-75
2023/05/09 13:21:33;;;;;;;;;;;;;;;20.29;53.81;101106.70;2199791;79;51815;-76
2023/05/09 13:24:35;;;;;;;;;;;;;;;20.28;53.85;101103.70;2224018;79;51519;-76
2023/05/09 13:27:37;;;;;;;;;;;;;;;20.31;53.85;101099.81;2222852;79;50039;-75
2023/05/09 13:30:38;;;;;;;;;;;;;;;20.30;53.93;101095.47;2249557;79;51453;-76
2023/05/09 13:33:40;;;;;;;;;;;;;;;20.32;53.80;101084.86;2230880;78;51618;-76
2023/05/09 13:36:41;;;;;;;;;;;;;;;20.31;54.01;101094.44;2242857;79;51564;-75
2023/05/09 13:39:43;;;;;;;;;;;;;;;20.32;54.02;101076.80;2217686;79;51404;-75
2023/05/09 13:42:45;;;;;;;;;;;;;;;20.33;53.93;101072.25;2217946;79;50048;-76
2023/05/09 13:45:46;;;;;;;;;;;;;;;20.34;54.07;101064.50;2194482;79;52661;-76
2023/05/09 13:48:48;;;;;;;;;;;;;;;20.33;54.05;101056.95;2217599;79;51489;-75
2023/05/09 13:51:49;;;;;;;;;;;;;;;20.34;54.09;101051.89;2217905;79;49868;-75
2023/05/09 13:54:51;;;;;;;;;;;;;;;20.35;54.09;101050.89;2218122;79;50305;-77
2023/05/09 13:57:53;;;;;;;;;;;;;;;20.36;54.14;101039.63;2213167;78;51159;-75
2023/05/09 14:00:55;;;;;;;;;;;;;;;20.36;54.16;101036.42;2208780;79;51553;-75
2023/05/09 14:03:56;;;;;;;;;;;;;;;20.38;54.21;101025.50;2206521;79;51405;-76
2023/05/09 14:06:58;;;;;;;;;;;;;;;20.38;54.29;101022.81;2249312;78;49926;-79
2023/05/09 14:10:00;;;;;;;;;;;;;;;20.41;54.20;101022.44;2249849;79;50786;-76
2023/05/09 14:13:01;;;;;;;;;;;;;;;20.40;54.26;101007.34;2224011;78;51589;-77
2023/05/09 14:16:04;;;;;;;;;;;;;;;20.41;54.32;101013.02;2223426;79;51618;-77
2023/05/09 14:19:06;;;;;;;;;;;;;;;20.41;54.39;101003.62;2223571;79;50317;-77
2023/05/09 14:22:07;;;;;;;;;;;;;;;20.42;54.34;100990.48;2245528;78;51019;-76
2023/05/09 14:25:09;;;;;;;;;;;;;;;20.43;54.37;100998.89;2233052;78;51637;-76
2023/05/09 14:28:11;;;;;;;;;;;;;;;20.43;54.42;100989.48;2233106;78;50844;-76
2023/05/09 14:31:12;;;;;;;;;;;;;;;20.45;54.46;100984.25;2233093;78;50661;-77
2023/05/09 14:34:14;;;;;;;;;;;;;;;20.46;54.43;100979.70;2248467;78;51190;-76
2023/05/09 14:37:15;;;;;;;;;;;;;;;20.46;54.49;100987.77;2233983;78;50248;-76
2023/05/09 14:40:17;;;;;;;;;;;;;;;20.48;54.56;100980.87;2258228;78;51556;-77
2023/05/09 14:43:20;;;;;;;;;;;;;;;20.48;54.66;100968.77;2233420;78;50391;-77
2023/05/09 14:46:23;;;;;;;;;;;;;;;20.49;54.54;100964.53;2266484;77;52487;-76
2023/05/09 14:49:25;;;;;;;;;;;;;;;20.49;54.65;100969.91;2228545;78;50486;-76
2023/05/09 14:52:27;;;;;;;;;;;;;;;20.52;54.68;100964.16;2265725;77;50507;-77
2023/05/09 14:55:30;;;;;;;;;;;;;;;20.52;54.79;100962.81;2286815;77;51459;-76
2023/05/09 14:58:33;;;;;;;;;;;;;;;20.53;54.78;100952.40;2260444;78;51730;-76
2023/05/09 15:01:34;;;;;;;;;;;;;;;20.55;54.77;100954.42;2286357;77;51549;-77
2023/05/09 15:04:36;;;;;;;;;;;;;;;20.56;54.69;100930.54;2286714;77;50287;-76
2023/05/09 15:07:37;;;;;;;;;;;;;;;20.57;54.85;100954.22;2265403;78;50295;-76
2023/05/09 15:10:39;;;;;;;;;;;;;;;20.57;54.82;100936.74;2286741;77;49521;-77
2023/05/09 15:13:41;;;;;;;;;;;;;;;20.59;54.77;100926.13;2286727;77;50648;-76
2023/05/09 15:16:42;;;;;;;;;;;;;;;20.61;54.74;100921.91;2281937;77;51521;-76
2023/05/09 15:19:44;;;;;;;;;;;;;;;20.62;54.78;100917.67;2247934;78;50659;-77
2023/05/09 15:22:49;;;;;;;;;;;;;;;20.62;54.79;100920.36;2209095;78;52379;-76
2023/05/09 15:25:50;;;;;;;;;;;;;;;20.63;54.84;100918.01;2268243;78;50262;-75
2023/05/09 15:28:52;;;;;;;;;;;;;;;20.65;54.82;100920.48;2267965;78;49993;-75
2023/05/09 15:31:54;;;;;;;;;;;;;;;20.67;54.80;100905.01;2268241;78;50250;-75
2023/05/09 15:34:56;;;;;;;;;;;;;;;20.66;54.84;100898.80;2258342;78;52758;-76